sim
Sign-in with your pilot id or email,
or register
Callsign
Passwort

Schedule Details

Flight Number: EWG1977 (3)
Departure: Hamburg Airport (EDDH) at 13:10
Arrival: Munich Airport (EDDM) at 14:35
Route: Eurowings Passenger Schedule. Enter filed route here before submitting Pirep.

Weather Information
Getting current METAR information for EDDH 250520Z 12010KT 100V160 9999 SCT048 14/11 Q0995 BECMG 22010KT
Getting current METAR information for EDDM 250520Z 19006KT 9999 -RA SCT040 13/12 Q1001 NOSIG

Schedule Frequency

Route Map